sensor_id;sensor_type;location;lat;lon;timestamp;temperature;humidity
6954;DHT22;3516;47.980;8.808;2022-12-05T05:00:05;19.00;99.90
6954;DHT22;3516;47.980;8.808;2022-12-05T05:02:45;18.50;99.90
6954;DHT22;3516;47.980;8.808;2022-12-05T05:05:48;18.90;99.90
6954;DHT22;3516;47.980;8.808;2022-12-05T05:08:18;18.90;99.90
6954;DHT22;3516;47.980;8.808;2022-12-05T05:10:53;18.90;99.90
6954;DHT22;3516;47.980;8.808;2022-12-05T05:13:20;18.90;99.90
6954;DHT22;3516;47.980;8.808;2022-12-05T05:15:49;18.90;99.90
6954;DHT22;3516;47.980;8.808;2022-12-05T05:18:15;18.90;99.90
6954;DHT22;3516;47.980;8.808;2022-12-05T05:20:42;18.90;99.90
6954;DHT22;3516;47.980;8.808;2022-12-05T05:23:09;18.80;99.90
6954;DHT22;3516;47.980;8.808;2022-12-05T05:25:35;18.80;99.90
6954;DHT22;3516;47.980;8.808;2022-12-05T05:28:02;18.80;99.90
6954;DHT22;3516;47.980;8.808;2022-12-05T05:30:29;18.80;99.90
6954;DHT22;3516;47.980;8.808;2022-12-05T05:32:58;18.80;99.90
6954;DHT22;3516;47.980;8.808;2022-12-05T05:35:25;18.90;99.90
6954;DHT22;3516;47.980;8.808;2022-12-05T05:37:52;18.90;99.90
6954;DHT22;3516;47.980;8.808;2022-12-05T05:40:18;18.90;99.90
6954;DHT22;3516;47.980;8.808;2022-12-05T05:42:47;18.90;99.90
6954;DHT22;3516;47.980;8.808;2022-12-05T05:45:14;19.00;99.90
6954;DHT22;3516;47.980;8.808;2022-12-05T05:47:41;18.80;99.90
6954;DHT22;3516;47.980;8.808;2022-12-05T05:50:10;18.90;99.90
6954;DHT22;3516;47.980;8.808;2022-12-05T05:52:37;18.90;99.90
6954;DHT22;3516;47.980;8.808;2022-12-05T05:55:05;18.90;99.90
6954;DHT22;3516;47.980;8.808;2022-12-05T05:57:32;18.90;99.90
6954;DHT22;3516;47.980;8.808;2022-12-05T05:59:59;19.20;99.90
6954;DHT22;3516;47.980;8.808;2022-12-05T06:02:30;19.00;99.90
6954;DHT22;3516;47.980;8.808;2022-12-05T06:04:57;19.00;99.90
6954;DHT22;3516;47.980;8.808;2022-12-05T06:07:25;19.00;99.90
6954;DHT22;3516;47.980;8.808;2022-12-05T06:09:52;18.90;99.90
6954;DHT22;3516;47.980;8.808;2022-12-05T06:12:19;18.90;99.90
6954;DHT22;3516;47.980;8.808;2022-12-05T06:14:46;18.80;99.90
6954;DHT22;3516;47.980;8.808;2022-12-05T06:17:13;18.70;99.90
6954;DHT22;3516;47.980;8.808;2022-12-05T11:33:19;18.90;99.90
6954;DHT22;3516;47.980;8.808;2022-12-05T11:35:46;18.90;99.90
6954;DHT22;3516;47.980;8.808;2022-12-05T11:38:14;18.90;99.90
6954;DHT22;3516;47.980;8.808;2022-12-05T11:40:48;18.90;99.90
6954;DHT22;3516;47.980;8.808;2022-12-05T11:46:21;18.90;99.90
6954;DHT22;3516;47.980;8.808;2022-12-05T11:49:02;18.90;99.90
6954;DHT22;3516;47.980;8.808;2022-12-05T11:51:38;18.90;99.90
6954;DHT22;3516;47.980;8.808;2022-12-05T11:54:27;18.90;99.90
6954;DHT22;3516;47.980;8.808;2022-12-05T11:57:01;19.00;99.90
6954;DHT22;3516;47.980;8.808;2022-12-05T11:59:46;19.00;99.90
6954;DHT22;3516;47.980;8.808;2022-12-05T12:02:25;18.90;99.90
6954;DHT22;3516;47.980;8.808;2022-12-05T12:05:04;18.90;99.90
6954;DHT22;3516;47.980;8.808;2022-12-05T12:07:45;18.90;99.90
6954;DHT22;3516;47.980;8.808;2022-12-05T12:10:22;18.90;99.90
6954;DHT22;3516;47.980;8.808;2022-12-05T12:13:03;19.00;99.90
6954;DHT22;3516;47.980;8.808;2022-12-05T12:15:59;18.90;99.90
6954;DHT22;3516;47.980;8.808;2022-12-05T12:18:51;19.00;99.90
6954;DHT22;3516;47.980;8.808;2022-12-05T12:21:29;19.00;99.90
6954;DHT22;3516;47.980;8.808;2022-12-05T12:24:07;19.10;99.90
6954;DHT22;3516;47.980;8.808;2022-12-05T12:26:42;19.20;99.90
6954;DHT22;3516;47.980;8.808;2022-12-05T12:29:21;19.20;99.90
6954;DHT22;3516;47.980;8.808;2022-12-05T12:32:00;19.20;99.90
6954;DHT22;3516;47.980;8.808;2022-12-05T12:34:58;19.20;99.90
6954;DHT22;3516;47.980;8.808;2022-12-05T12:37:35;19.30;99.90
6954;DHT22;3516;47.980;8.808;2022-12-05T12:40:12;19.30;99.90
6954;DHT22;3516;47.980;8.808;2022-12-05T12:42:47;19.40;99.90
6954;DHT22;3516;47.980;8.808;2022-12-05T12:45:37;19.40;99.90
6954;DHT22;3516;47.980;8.808;2022-12-05T12:48:25;19.40;99.90
6954;DHT22;3516;47.980;8.808;2022-12-05T12:51:00;19.30;99.90
6954;DHT22;3516;47.980;8.808;2022-12-05T12:56:39;19.40;99.90
6954;DHT22;3516;47.980;8.808;2022-12-05T12:59:20;19.30;99.90
6954;DHT22;3516;47.980;8.808;2022-12-05T13:01:51;19.30;99.90
6954;DHT22;3516;47.980;8.808;2022-12-05T13:04:23;19.20;99.90
6954;DHT22;3516;47.980;8.808;2022-12-05T13:06:54;19.10;99.90
6954;DHT22;3516;47.980;8.808;2022-12-05T13:09:27;19.00;99.90
6954;DHT22;3516;47.980;8.808;2022-12-05T13:11:55;19.00;99.90
6954;DHT22;3516;47.980;8.808;2022-12-05T13:14:24;18.90;99.90
6954;DHT22;3516;47.980;8.808;2022-12-05T13:16:53;18.90;99.90
6954;DHT22;3516;47.980;8.808;2022-12-05T13:19:25;18.90;99.90
6954;DHT22;3516;47.980;8.808;2022-12-05T13:21:55;18.90;99.90
6954;DHT22;3516;47.980;8.808;2022-12-05T13:24:26;18.90;99.90
6954;DHT22;3516;47.980;8.808;2022-12-05T13:26:57;18.80;99.90
6954;DHT22;3516;47.980;8.808;2022-12-05T13:29:29;18.90;99.90
6954;DHT22;3516;47.980;8.808;2022-12-05T13:31:57;18.80;99.90
6954;DHT22;3516;47.980;8.808;2022-12-05T13:34:46;18.80;99.90
6954;DHT22;3516;47.980;8.808;2022-12-05T13:37:19;18.80;99.90
6954;DHT22;3516;47.980;8.808;2022-12-05T13:40:20;18.80;99.90
6954;DHT22;3516;47.980;8.808;2022-12-05T13:43:05;18.80;99.90
6954;DHT22;3516;47.980;8.808;2022-12-05T13:45:33;18.90;99.90
6954;DHT22;3516;47.980;8.808;2022-12-05T13:48:14;18.80;99.90
6954;DHT22;3516;47.980;8.808;2022-12-05T13:50:50;18.70;99.90
6954;DHT22;3516;47.980;8.808;2022-12-05T13:53:27;18.80;99.90
6954;DHT22;3516;47.980;8.808;2022-12-05T13:55:59;18.80;99.90
6954;DHT22;3516;47.980;8.808;2022-12-05T13:58:45;18.80;99.90
6954;DHT22;3516;47.980;8.808;2022-12-05T14:01:45;18.70;99.90
6954;DHT22;3516;47.980;8.808;2022-12-05T14:04:46;18.70;99.90
6954;DHT22;3516;47.980;8.808;2022-12-05T14:07:40;18.70;99.90
6954;DHT22;3516;47.980;8.808;2022-12-05T14:10:09;18.70;99.90
6954;DHT22;3516;47.980;8.808;2022-12-05T14:12:51;18.80;99.90
6954;DHT22;3516;47.980;8.808;2022-12-05T14:15:26;18.90;99.90
6954;DHT22;3516;47.980;8.808;2022-12-05T14:18:13;19.00;99.90
6954;DHT22;3516;47.980;8.808;2022-12-05T14:20:52;19.00;99.90
6954;DHT22;3516;47.980;8.808;2022-12-05T14:23:37;18.90;99.90
6954;DHT22;3516;47.980;8.808;2022-12-05T14:26:22;18.90;99.90
6954;DHT22;3516;47.980;8.808;2022-12-05T14:32:02;19.00;99.90
6954;DHT22;3516;47.980;8.808;2022-12-05T14:34:32;18.80;99.90
6954;DHT22;3516;47.980;8.808;2022-12-05T14:37:02;18.80;99.90
6954;DHT22;3516;47.980;8.808;2022-12-05T14:39:39;18.80;99.90
6954;DHT22;3516;47.980;8.808;2022-12-05T14:42:21;18.80;99.90
6954;DHT22;3516;47.980;8.808;2022-12-05T14:44:53;18.80;99.90
6954;DHT22;3516;47.980;8.808;2022-12-05T14:47:25;18.90;99.90
6954;DHT22;3516;47.980;8.808;2022-12-05T14:49:58;18.70;99.90
6954;DHT22;3516;47.980;8.808;2022-12-05T14:52:28;18.70;99.90
6954;DHT22;3516;47.980;8.808;2022-12-05T14:55:04;18.70;99.90
6954;DHT22;3516;47.980;8.808;2022-12-05T14:57:35;18.70;99.90
6954;DHT22;3516;47.980;8.808;2022-12-05T15:00:18;18.90;99.90
6954;DHT22;3516;47.980;8.808;2022-12-05T15:02:48;18.70;99.90
6954;DHT22;3516;47.980;8.808;2022-12-05T15:05:21;18.70;99.90
6954;DHT22;3516;47.980;8.808;2022-12-05T15:07:50;18.80;99.90
6954;DHT22;3516;47.980;8.808;2022-12-05T15:10:22;18.70;99.90
6954;DHT22;3516;47.980;8.808;2022-12-05T15:12:53;18.80;99.90
6954;DHT22;3516;47.980;8.808;2022-12-05T15:15:32;18.70;99.90
6954;DHT22;3516;47.980;8.808;2022-12-05T15:18:09;18.70;99.90
6954;DHT22;3516;47.980;8.808;2022-12-05T15:20:43;18.70;99.90
6954;DHT22;3516;47.980;8.808;2022-12-05T15:23:40;18.70;99.90
6954;DHT22;3516;47.980;8.808;2022-12-05T15:26:24;18.70;99.90
6954;DHT22;3516;47.980;8.808;2022-12-05T15:28:59;18.70;99.90
6954;DHT22;3516;47.980;8.808;2022-12-05T15:31:30;18.70;99.90
6954;DHT22;3516;47.980;8.808;2022-12-05T15:34:02;18.80;99.90
6954;DHT22;3516;47.980;8.808;2022-12-05T15:36:33;19.00;99.90
6954;DHT22;3516;47.980;8.808;2022-12-05T15:39:05;19.20;99.90
6954;DHT22;3516;47.980;8.808;2022-12-05T15:41:32;19.30;99.90
6954;DHT22;3516;47.980;8.808;2022-12-05T15:43:58;19.40;99.90
6954;DHT22;3516;47.980;8.808;2022-12-05T15:46:26;19.50;99.90
6954;DHT22;3516;47.980;8.808;2022-12-05T15:48:56;19.40;99.90
6954;DHT22;3516;47.980;8.808;2022-12-05T15:51:29;19.40;99.90
6954;DHT22;3516;47.980;8.808;2022-12-05T15:54:00;19.30;99.90
6954;DHT22;3516;47.980;8.808;2022-12-05T15:56:33;19.30;99.90
6954;DHT22;3516;47.980;8.808;2022-12-05T15:59:03;19.30;99.90
6954;DHT22;3516;47.980;8.808;2022-12-05T16:01:38;19.20;99.90
6954;DHT22;3516;47.980;8.808;2022-12-05T16:04:13;19.10;99.90
6954;DHT22;3516;47.980;8.808;2022-12-05T16:06:42;19.20;99.90
6954;DHT22;3516;47.980;8.808;2022-12-05T16:09:14;19.10;99.90
6954;DHT22;3516;47.980;8.808;2022-12-05T16:11:50;19.10;99.90
6954;DHT22;3516;47.980;8.808;2022-12-05T16:14:17;19.10;99.90
6954;DHT22;3516;47.980;8.808;2022-12-05T16:16:44;19.10;99.90
6954;DHT22;3516;47.980;8.808;2022-12-05T16:19:15;19.10;99.90
6954;DHT22;3516;47.980;8.808;2022-12-05T16:21:44;19.10;99.90
6954;DHT22;3516;47.980;8.808;2022-12-05T16:24:16;19.10;99.90
6954;DHT22;3516;47.980;8.808;2022-12-05T16:26:53;19.10;99.90
6954;DHT22;3516;47.980;8.808;2022-12-05T16:29:27;19.10;99.90
6954;DHT22;3516;47.980;8.808;2022-12-05T16:31:55;19.00;99.90
6954;DHT22;3516;47.980;8.808;2022-12-05T16:34:24;19.00;99.90
6954;DHT22;3516;47.980;8.808;2022-12-05T16:36:53;19.00;99.90
6954;DHT22;3516;47.980;8.808;2022-12-05T16:39:22;18.90;99.90
6954;DHT22;3516;47.980;8.808;2022-12-05T16:41:50;18.90;99.90
6954;DHT22;3516;47.980;8.808;2022-12-05T16:44:54;18.90;99.90
6954;DHT22;3516;47.980;8.808;2022-12-05T16:47:53;18.90;99.90
6954;DHT22;3516;47.980;8.808;2022-12-05T16:50:32;18.80;99.90
6954;DHT22;3516;47.980;8.808;2022-12-05T16:53:01;18.80;99.90
6954;DHT22;3516;47.980;8.808;2022-12-05T16:55:27;18.80;99.90
6954;DHT22;3516;47.980;8.808;2022-12-05T16:58:00;18.80;99.90
6954;DHT22;3516;47.980;8.808;2022-12-05T17:00:27;18.70;99.90
6954;DHT22;3516;47.980;8.808;2022-12-05T17:02:54;18.80;99.90
6954;DHT22;3516;47.980;8.808;2022-12-05T17:05:22;18.70;99.90
6954;DHT22;3516;47.980;8.808;2022-12-05T17:07:50;18.80;99.90
6954;DHT22;3516;47.980;8.808;2022-12-05T17:10:17;18.80;99.90
6954;DHT22;3516;47.980;8.808;2022-12-05T17:12:44;18.80;99.90
6954;DHT22;3516;47.980;8.808;2022-12-05T17:15:14;18.80;99.90
6954;DHT22;3516;47.980;8.808;2022-12-05T17:17:41;18.90;99.90
6954;DHT22;3516;47.980;8.808;2022-12-05T17:20:09;18.80;99.90
6954;DHT22;3516;47.980;8.808;2022-12-05T17:22:37;18.70;99.90
6954;DHT22;3516;47.980;8.808;2022-12-05T17:25:16;18.70;99.90
6954;DHT22;3516;47.980;8.808;2022-12-05T17:27:43;18.70;99.90
6954;DHT22;3516;47.980;8.808;2022-12-05T17:30:10;18.70;99.90
6954;DHT22;3516;47.980;8.808;2022-12-05T17:32:37;18.70;99.90
6954;DHT22;3516;47.980;8.808;2022-12-05T17:35:14;18.70;99.90
6954;DHT22;3516;47.980;8.808;2022-12-05T17:37:41;18.70;99.90
6954;DHT22;3516;47.980;8.808;2022-12-05T17:40:10;18.70;99.90
6954;DHT22;3516;47.980;8.808;2022-12-05T17:42:38;18.60;99.90
6954;DHT22;3516;47.980;8.808;2022-12-05T17:45:07;18.70;99.90
6954;DHT22;3516;47.980;8.808;2022-12-05T17:47:35;18.60;99.90
6954;DHT22;3516;47.980;8.808;2022-12-05T17:50:02;18.60;99.90
6954;DHT22;3516;47.980;8.808;2022-12-05T17:52:29;18.60;99.90
6954;DHT22;3516;47.980;8.808;2022-12-05T17:54:56;18.60;99.90
6954;DHT22;3516;47.980;8.808;2022-12-05T17:57:24;18.60;99.90
6954;DHT22;3516;47.980;8.808;2022-12-05T17:59:51;18.50;99.90
6954;DHT22;3516;47.980;8.808;2022-12-05T18:02:17;18.60;99.90
6954;DHT22;3516;47.980;8.808;2022-12-05T18:04:44;18.80;99.90
6954;DHT22;3516;47.980;8.808;2022-12-05T18:07:11;19.00;99.90
6954;DHT22;3516;47.980;8.808;2022-12-05T18:09:38;19.10;99.90
6954;DHT22;3516;47.980;8.808;2022-12-05T18:12:05;19.40;99.90
6954;DHT22;3516;47.980;8.808;2022-12-05T18:14:33;19.40;99.90
6954;DHT22;3516;47.980;8.808;2022-12-05T18:17:02;19.50;99.90
6954;DHT22;3516;47.980;8.808;2022-12-05T18:19:29;19.40;99.90
6954;DHT22;3516;47.980;8.808;2022-12-05T18:21:55;19.50;99.90
6954;DHT22;3516;47.980;8.808;2022-12-05T18:24:22;19.50;99.90
6954;DHT22;3516;47.980;8.808;2022-12-05T18:26:49;19.50;99.90
6954;DHT22;3516;47.980;8.808;2022-12-05T18:29:16;19.40;99.90
6954;DHT22;3516;47.980;8.808;2022-12-05T18:31:44;19.40;99.90
6954;DHT22;3516;47.980;8.808;2022-12-05T18:34:10;19.40;99.90
6954;DHT22;3516;47.980;8.808;2022-12-05T18:36:37;19.50;99.90
6954;DHT22;3516;47.980;8.808;2022-12-05T18:39:04;19.40;99.90
6954;DHT22;3516;47.980;8.808;2022-12-05T18:41:31;19.60;99.90
6954;DHT22;3516;47.980;8.808;2022-12-05T18:43:58;19.50;99.90
6954;DHT22;3516;47.980;8.808;2022-12-05T18:46:24;19.50;99.90
6954;DHT22;3516;47.980;8.808;2022-12-05T18:48:53;19.50;99.90
6954;DHT22;3516;47.980;8.808;2022-12-05T18:51:21;19.30;99.90
6954;DHT22;3516;47.980;8.808;2022-12-05T18:53:50;19.40;99.90
6954;DHT22;3516;47.980;8.808;2022-12-05T18:56:19;19.40;99.90
6954;DHT22;3516;47.980;8.808;2022-12-05T18:58:52;19.30;99.90
6954;DHT22;3516;47.980;8.808;2022-12-05T19:01:19;19.30;99.90
6954;DHT22;3516;47.980;8.808;2022-12-05T19:03:46;19.30;99.90
6954;DHT22;3516;47.980;8.808;2022-12-05T19:06:16;19.20;99.90
6954;DHT22;3516;47.980;8.808;2022-12-05T19:08:43;19.20;99.90
6954;DHT22;3516;47.980;8.808;2022-12-05T19:11:11;19.30;99.90
6954;DHT22;3516;47.980;8.808;2022-12-05T19:13:38;19.20;99.90
6954;DHT22;3516;47.980;8.808;2022-12-05T19:16:07;19.10;99.90
6954;DHT22;3516;47.980;8.808;2022-12-05T19:18:34;19.10;99.90
6954;DHT22;3516;47.980;8.808;2022-12-05T19:21:01;19.20;99.90
6954;DHT22;3516;47.980;8.808;2022-12-05T19:23:31;19.10;99.90
6954;DHT22;3516;47.980;8.808;2022-12-05T19:25:59;19.10;99.90
6954;DHT22;3516;47.980;8.808;2022-12-05T19:28:25;19.00;99.90
6954;DHT22;3516;47.980;8.808;2022-12-05T19:30:58;19.10;99.90
6954;DHT22;3516;47.980;8.808;2022-12-05T19:33:29;19.10;99.90
6954;DHT22;3516;47.980;8.808;2022-12-05T19:35:55;19.10;99.90
6954;DHT22;3516;47.980;8.808;2022-12-05T19:38:31;19.10;99.90
6954;DHT22;3516;47.980;8.808;2022-12-05T19:40:58;19.10;99.90
6954;DHT22;3516;47.980;8.808;2022-12-05T19:43:27;19.20;99.90
6954;DHT22;3516;47.980;8.808;2022-12-05T19:45:54;19.10;99.90
6954;DHT22;3516;47.980;8.808;2022-12-05T19:48:21;19.10;99.90
6954;DHT22;3516;47.980;8.808;2022-12-05T19:50:52;19.10;99.90
6954;DHT22;3516;47.980;8.808;2022-12-05T19:53:19;19.10;99.90
6954;DHT22;3516;47.980;8.808;2022-12-05T19:55:47;19.10;99.90
6954;DHT22;3516;47.980;8.808;2022-12-05T19:58:14;19.10;99.90
6954;DHT22;3516;47.980;8.808;2022-12-05T20:00:41;19.10;99.90
6954;DHT22;3516;47.980;8.808;2022-12-05T20:03:08;19.00;99.90
6954;DHT22;3516;47.980;8.808;2022-12-05T20:05:35;19.10;99.90
6954;DHT22;3516;47.980;8.808;2022-12-05T20:08:03;19.10;99.90
6954;DHT22;3516;47.980;8.808;2022-12-05T20:10:29;19.20;99.90
6954;DHT22;3516;47.980;8.808;2022-12-05T20:12:57;19.20;99.90
6954;DHT22;3516;47.980;8.808;2022-12-05T20:15:24;19.20;99.90
6954;DHT22;3516;47.980;8.808;2022-12-05T20:17:51;19.30;99.90
6954;DHT22;3516;47.980;8.808;2022-12-05T20:20:18;19.20;99.90
6954;DHT22;3516;47.980;8.808;2022-12-05T20:22:44;19.20;99.90
6954;DHT22;3516;47.980;8.808;2022-12-05T20:25:11;19.20;99.90
6954;DHT22;3516;47.980;8.808;2022-12-05T20:27:38;19.30;99.90
6954;DHT22;3516;47.980;8.808;2022-12-05T20:30:07;19.20;99.90
6954;DHT22;3516;47.980;8.808;2022-12-05T20:32:34;19.10;99.90
6954;DHT22;3516;47.980;8.808;2022-12-05T20:35:01;19.20;99.90
6954;DHT22;3516;47.980;8.808;2022-12-05T20:37:27;19.10;99.90
6954;DHT22;3516;47.980;8.808;2022-12-05T20:39:54;19.10;99.90
6954;DHT22;3516;47.980;8.808;2022-12-05T20:42:21;19.10;99.90
6954;DHT22;3516;47.980;8.808;2022-12-05T20:44:48;19.10;99.90
6954;DHT22;3516;47.980;8.808;2022-12-05T20:47:16;19.10;99.90
6954;DHT22;3516;47.980;8.808;2022-12-05T20:49:42;19.00;99.90
6954;DHT22;3516;47.980;8.808;2022-12-05T20:52:09;19.00;99.90
6954;DHT22;3516;47.980;8.808;2022-12-05T20:54:36;19.00;99.90
6954;DHT22;3516;47.980;8.808;2022-12-05T20:57:02;19.10;99.90
6954;DHT22;3516;47.980;8.808;2022-12-05T20:59:29;19.10;99.90
6954;DHT22;3516;47.980;8.808;2022-12-05T21:01:56;19.10;99.90
6954;DHT22;3516;47.980;8.808;2022-12-05T21:04:24;19.10;99.90
6954;DHT22;3516;47.980;8.808;2022-12-05T21:06:51;19.10;99.90
6954;DHT22;3516;47.980;8.808;2022-12-05T21:09:17;19.10;99.90
6954;DHT22;3516;47.980;8.808;2022-12-05T21:11:51;19.20;99.90
6954;DHT22;3516;47.980;8.808;2022-12-05T21:14:18;19.20;99.90
6954;DHT22;3516;47.980;8.808;2022-12-05T21:16:45;19.10;99.90
6954;DHT22;3516;47.980;8.808;2022-12-05T21:19:12;19.20;99.90
6954;DHT22;3516;47.980;8.808;2022-12-05T21:21:40;19.10;99.90
6954;DHT22;3516;47.980;8.808;2022-12-05T21:24:08;19.20;99.90
6954;DHT22;3516;47.980;8.808;2022-12-05T21:26:35;19.20;99.90
6954;DHT22;3516;47.980;8.808;2022-12-05T21:29:03;19.20;99.90
6954;DHT22;3516;47.980;8.808;2022-12-05T21:31:32;19.20;99.90
6954;DHT22;3516;47.980;8.808;2022-12-05T21:34:00;19.20;99.90
6954;DHT22;3516;47.980;8.808;2022-12-05T21:36:29;19.20;99.90
6954;DHT22;3516;47.980;8.808;2022-12-05T21:38:58;19.20;99.90
6954;DHT22;3516;47.980;8.808;2022-12-05T21:41:25;19.20;99.90
6954;DHT22;3516;47.980;8.808;2022-12-05T21:43:52;19.20;99.90
6954;DHT22;3516;47.980;8.808;2022-12-05T21:46:19;19.20;99.90
6954;DHT22;3516;47.980;8.808;2022-12-05T21:48:46;19.20;99.90
6954;DHT22;3516;47.980;8.808;2022-12-05T21:51:13;19.10;99.90
6954;DHT22;3516;47.980;8.808;2022-12-05T21:53:40;19.20;99.90
6954;DHT22;3516;47.980;8.808;2022-12-05T21:56:12;19.20;99.90
6954;DHT22;3516;47.980;8.808;2022-12-05T21:58:41;19.00;99.90
6954;DHT22;3516;47.980;8.808;2022-12-05T22:01:08;19.10;99.90
6954;DHT22;3516;47.980;8.808;2022-12-05T22:03:35;19.10;99.90
6954;DHT22;3516;47.980;8.808;2022-12-05T22:06:03;19.20;99.90
6954;DHT22;3516;47.980;8.808;2022-12-05T22:08:31;19.10;99.90
6954;DHT22;3516;47.980;8.808;2022-12-05T22:11:06;19.20;99.90
6954;DHT22;3516;47.980;8.808;2022-12-05T22:13:35;19.10;99.90
6954;DHT22;3516;47.980;8.808;2022-12-05T22:16:02;19.20;99.90
6954;DHT22;3516;47.980;8.808;2022-12-05T22:18:29;19.20;99.90
6954;DHT22;3516;47.980;8.808;2022-12-05T22:20:57;19.20;99.90
6954;DHT22;3516;47.980;8.808;2022-12-05T22:23:24;19.20;99.90
6954;DHT22;3516;47.980;8.808;2022-12-05T22:25:56;18.30;99.90
6954;DHT22;3516;47.980;8.808;2022-12-05T22:28:23;19.30;99.90
6954;DHT22;3516;47.980;8.808;2022-12-05T22:30:52;19.20;99.90
6954;DHT22;3516;47.980;8.808;2022-12-05T22:33:22;19.20;99.90
6954;DHT22;3516;47.980;8.808;2022-12-05T22:35:50;19.30;99.90
6954;DHT22;3516;47.980;8.808;2022-12-05T22:38:21;19.30;99.90
6954;DHT22;3516;47.980;8.808;2022-12-05T22:40:52;19.40;99.90
6954;DHT22;3516;47.980;8.808;2022-12-05T22:43:19;19.10;99.90
6954;DHT22;3516;47.980;8.808;2022-12-05T22:45:46;19.90;99.90
6954;DHT22;3516;47.980;8.808;2022-12-05T22:48:15;19.20;99.90
6954;DHT22;3516;47.980;8.808;2022-12-05T22:50:45;19.20;99.90
6954;DHT22;3516;47.980;8.808;2022-12-05T22:53:13;19.20;99.90
6954;DHT22;3516;47.980;8.808;2022-12-05T22:55:41;19.20;99.90
6954;DHT22;3516;47.980;8.808;2022-12-05T22:58:07;19.10;99.90
6954;DHT22;3516;47.980;8.808;2022-12-05T23:00:34;19.30;99.90
6954;DHT22;3516;47.980;8.808;2022-12-05T23:03:01;19.10;99.90
6954;DHT22;3516;47.980;8.808;2022-12-05T23:05:30;17.90;99.90
6954;DHT22;3516;47.980;8.808;2022-12-05T23:07:59;19.20;99.90
6954;DHT22;3516;47.980;8.808;2022-12-05T23:10:26;19.20;99.90
6954;DHT22;3516;47.980;8.808;2022-12-05T23:12:54;19.10;99.90
6954;DHT22;3516;47.980;8.808;2022-12-05T23:15:21;19.20;99.90
6954;DHT22;3516;47.980;8.808;2022-12-05T23:17:48;19.20;99.90
6954;DHT22;3516;47.980;8.808;2022-12-05T23:20:15;19.10;99.90
6954;DHT22;3516;47.980;8.808;2022-12-05T23:22:43;19.10;99.90
